sensor_id;sensor_type;location;lat;lon;timestamp;pressure;altitude;pressure_sealevel;temperature;humidity
48976;BME280;34791;52.752;8.346;2023-02-22T00:00:36;149576.28;;;8.41;100.00
48976;BME280;34791;52.752;8.346;2023-02-22T00:03:18;149573.69;;;8.40;100.00
48976;BME280;34791;52.752;8.346;2023-02-22T00:05:59;149569.81;;;8.39;100.00
48976;BME280;34791;52.752;8.346;2023-02-22T00:08:28;149571.13;;;8.39;100.00
48976;BME280;34791;52.752;8.346;2023-02-22T00:11:01;149564.66;;;8.37;100.00
48976;BME280;34791;52.752;8.346;2023-02-22T00:13:28;149559.44;;;8.35;100.00
48976;BME280;34791;52.752;8.346;2023-02-22T00:15:57;149556.81;;;8.34;100.00
48976;BME280;34791;52.752;8.346;2023-02-22T00:18:24;149551.66;;;8.32;100.00
48976;BME280;34791;52.752;8.346;2023-02-22T00:20:52;149550.38;;;8.31;100.00
48976;BME280;34791;52.752;8.346;2023-02-22T00:23:20;149550.38;;;8.31;100.00
48976;BME280;34791;52.752;8.346;2023-02-22T00:25:48;149547.78;;;8.30;100.00
48976;BME280;34791;52.752;8.346;2023-02-22T00:28:15;149554.25;;;8.33;100.00
48976;BME280;34791;52.752;8.346;2023-02-22T00:30:44;149552.94;;;8.32;100.00
48976;BME280;34791;52.752;8.346;2023-02-22T00:33:13;149556.81;;;8.34;100.00
48976;BME280;34791;52.752;8.346;2023-02-22T00:35:40;149556.81;;;8.34;100.00
48976;BME280;34791;52.752;8.346;2023-02-22T00:38:06;149559.44;;;8.35;100.00
48976;BME280;34791;52.752;8.346;2023-02-22T00:40:33;149593.09;;;8.48;100.00
48976;BME280;34791;52.752;8.346;2023-02-22T00:43:00;149587.91;;;8.46;100.00
48976;BME280;34791;52.752;8.346;2023-02-22T00:45:28;149597.00;;;8.49;100.00
48976;BME280;34791;52.752;8.346;2023-02-22T00:47:54;149589.19;;;8.46;100.00
48976;BME280;34791;52.752;8.346;2023-02-22T00:50:21;149586.59;;;8.45;100.00
48976;BME280;34791;52.752;8.346;2023-02-22T00:52:47;149590.47;;;8.47;100.00
48976;BME280;34791;52.752;8.346;2023-02-22T00:55:22;149582.75;;;8.44;100.00
48976;BME280;34791;52.752;8.346;2023-02-22T00:57:47;149569.81;;;8.39;100.00
48976;BME280;34791;52.752;8.346;2023-02-22T01:00:17;149572.41;;;8.40;100.00
48976;BME280;34791;52.752;8.346;2023-02-22T01:02:43;149572.41;;;8.40;100.00
48976;BME280;34791;52.752;8.346;2023-02-22T01:05:10;149558.16;;;8.34;100.00
48976;BME280;34791;52.752;8.346;2023-02-22T01:07:40;149559.44;;;8.35;100.00
48976;BME280;34791;52.752;8.346;2023-02-22T01:10:07;149552.94;;;8.32;100.00
48976;BME280;34791;52.752;8.346;2023-02-22T01:12:34;149558.16;;;8.34;100.00
48976;BME280;34791;52.752;8.346;2023-02-22T01:15:04;149562.03;;;8.36;100.00
48976;BME280;34791;52.752;8.346;2023-02-22T01:17:30;149558.16;;;8.34;100.00
48976;BME280;34791;52.752;8.346;2023-02-22T01:19:55;149560.75;;;8.35;100.00
48976;BME280;34791;52.752;8.346;2023-02-22T01:22:21;149571.13;;;8.39;100.00
48976;BME280;34791;52.752;8.346;2023-02-22T01:24:47;149564.66;;;8.37;100.00
48976;BME280;34791;52.752;8.346;2023-02-22T01:27:13;149567.25;;;8.38;100.00
48976;BME280;34791;52.752;8.346;2023-02-22T01:29:39;149572.41;;;8.40;100.00
48976;BME280;34791;52.752;8.346;2023-02-22T01:32:05;149590.47;;;8.47;100.00
48976;BME280;34791;52.752;8.346;2023-02-22T01:34:31;149580.16;;;8.43;100.00
48976;BME280;34791;52.752;8.346;2023-02-22T01:36:57;149564.66;;;8.37;100.00
48976;BME280;34791;52.752;8.346;2023-02-22T01:39:23;149562.03;;;8.36;100.00
48976;BME280;34791;52.752;8.346;2023-02-22T01:41:49;149558.16;;;8.34;100.00
48976;BME280;34791;52.752;8.346;2023-02-22T01:46:56;149549.06;;;8.31;100.00
48976;BME280;34791;52.752;8.346;2023-02-22T01:49:25;149547.78;;;8.30;100.00
48976;BME280;34791;52.752;8.346;2023-02-22T01:51:55;149546.50;;;8.30;100.00
48976;BME280;34791;52.752;8.346;2023-02-22T01:54:29;149554.25;;;8.33;100.00
48976;BME280;34791;52.752;8.346;2023-02-22T01:57:20;149546.50;;;8.30;100.00
48976;BME280;34791;52.752;8.346;2023-02-22T01:59:51;149551.66;;;8.32;100.00
48976;BME280;34791;52.752;8.346;2023-02-22T02:02:18;149538.75;;;8.27;100.00
48976;BME280;34791;52.752;8.346;2023-02-22T02:04:46;149533.59;;;8.25;100.00
48976;BME280;34791;52.752;8.346;2023-02-22T02:07:14;149529.66;;;8.23;100.00
48976;BME280;34791;52.752;8.346;2023-02-22T02:12:09;149527.09;;;8.22;100.00
48976;BME280;34791;52.752;8.346;2023-02-22T02:14:35;149527.09;;;8.22;100.00
48976;BME280;34791;52.752;8.346;2023-02-22T02:17:06;149530.97;;;8.23;100.00
48976;BME280;34791;52.752;8.346;2023-02-22T02:39:26;149569.81;;;8.39;100.00
48976;BME280;34791;52.752;8.346;2023-02-22T02:41:54;149554.25;;;8.33;100.00
48976;BME280;34791;52.752;8.346;2023-02-22T02:44:27;149551.66;;;8.32;100.00
48976;BME280;34791;52.752;8.346;2023-02-22T02:47:19;149551.66;;;8.32;100.00
48976;BME280;34791;52.752;8.346;2023-02-22T02:49:54;149546.50;;;8.30;100.00
48976;BME280;34791;52.752;8.346;2023-02-22T02:52:23;149564.66;;;8.37;100.00
48976;BME280;34791;52.752;8.346;2023-02-22T02:54:52;149571.13;;;8.39;100.00
48976;BME280;34791;52.752;8.346;2023-02-22T02:57:19;149564.66;;;8.37;100.00
48976;BME280;34791;52.752;8.346;2023-02-22T02:59:45;149571.13;;;8.39;100.00
48976;BME280;34791;52.752;8.346;2023-02-22T03:16:36;149546.50;;;8.30;100.00
48976;BME280;34791;52.752;8.346;2023-02-22T03:18:48;149562.03;;;8.36;100.00
48976;BME280;34791;52.752;8.346;2023-02-22T03:21:34;149543.91;;;8.29;100.00
48976;BME280;34791;52.752;8.346;2023-02-22T03:24:13;149543.91;;;8.29;100.00
48976;BME280;34791;52.752;8.346;2023-02-22T03:26:46;149528.38;;;8.22;100.00
48976;BME280;34791;52.752;8.346;2023-02-22T03:29:17;149515.47;;;8.17;100.00
48976;BME280;34791;52.752;8.346;2023-02-22T03:31:52;149518.06;;;8.18;100.00
48976;BME280;34791;52.752;8.346;2023-02-22T03:34:26;149551.66;;;8.32;100.00
48976;BME280;34791;52.752;8.346;2023-02-22T03:36:58;149546.50;;;8.30;100.00
48976;BME280;34791;52.752;8.346;2023-02-22T03:39:26;149540.03;;;8.27;100.00
48976;BME280;34791;52.752;8.346;2023-02-22T03:41:57;149541.34;;;8.28;100.00
48976;BME280;34791;52.752;8.346;2023-02-22T03:44:28;149541.34;;;8.28;100.00
48976;BME280;34791;52.752;8.346;2023-02-22T03:46:56;149551.66;;;8.32;100.00
48976;BME280;34791;52.752;8.346;2023-02-22T03:49:53;149541.34;;;8.28;100.00
48976;BME280;34791;52.752;8.346;2023-02-22T03:52:20;149541.34;;;8.28;100.00
48976;BME280;34791;52.752;8.346;2023-02-22T03:54:50;149541.34;;;8.28;100.00
48976;BME280;34791;52.752;8.346;2023-02-22T03:57:25;149541.34;;;8.28;100.00
48976;BME280;34791;52.752;8.346;2023-02-22T03:59:52;149543.91;;;8.29;100.00
48976;BME280;34791;52.752;8.346;2023-02-22T04:02:18;149554.25;;;8.33;100.00
48976;BME280;34791;52.752;8.346;2023-02-22T04:04:45;149564.66;;;8.37;100.00
48976;BME280;34791;52.752;8.346;2023-02-22T04:07:10;149558.16;;;8.34;100.00
48976;BME280;34791;52.752;8.346;2023-02-22T04:09:35;149567.25;;;8.38;100.00
48976;BME280;34791;52.752;8.346;2023-02-22T04:12:01;149567.25;;;8.38;100.00
48976;BME280;34791;52.752;8.346;2023-02-22T04:14:26;149562.03;;;8.36;100.00
48976;BME280;34791;52.752;8.346;2023-02-22T04:16:52;149569.81;;;8.39;100.00
48976;BME280;34791;52.752;8.346;2023-02-22T04:19:17;149564.66;;;8.37;100.00
48976;BME280;34791;52.752;8.346;2023-02-22T04:21:43;149571.13;;;8.39;100.00
48976;BME280;34791;52.752;8.346;2023-02-22T04:24:08;149572.41;;;8.40;100.00
48976;BME280;34791;52.752;8.346;2023-02-22T04:26:33;149569.81;;;8.39;100.00
48976;BME280;34791;52.752;8.346;2023-02-22T04:28:59;149567.25;;;8.38;100.00
48976;BME280;34791;52.752;8.346;2023-02-22T04:31:24;149572.41;;;8.40;100.00
48976;BME280;34791;52.752;8.346;2023-02-22T04:33:50;149572.41;;;8.40;100.00
48976;BME280;34791;52.752;8.346;2023-02-22T04:36:15;149587.91;;;8.46;100.00
48976;BME280;34791;52.752;8.346;2023-02-22T04:38:41;149580.16;;;8.43;100.00
48976;BME280;34791;52.752;8.346;2023-02-22T04:41:07;149585.31;;;8.45;100.00
48976;BME280;34791;52.752;8.346;2023-02-22T04:43:32;149585.31;;;8.45;100.00
48976;BME280;34791;52.752;8.346;2023-02-22T04:45:57;149577.56;;;8.42;100.00
48976;BME280;34791;52.752;8.346;2023-02-22T04:48:23;149569.81;;;8.39;100.00
48976;BME280;34791;52.752;8.346;2023-02-22T04:50:48;149562.03;;;8.36;100.00
48976;BME280;34791;52.752;8.346;2023-02-22T04:53:15;149555.53;;;8.33;100.00
48976;BME280;34791;52.752;8.346;2023-02-22T04:55:40;149560.75;;;8.35;100.00
48976;BME280;34791;52.752;8.346;2023-02-22T04:58:06;149559.44;;;8.35;100.00
48976;BME280;34791;52.752;8.346;2023-02-22T05:00:31;149547.78;;;8.30;100.00
48976;BME280;34791;52.752;8.346;2023-02-22T05:02:56;149538.75;;;8.27;100.00
48976;BME280;34791;52.752;8.346;2023-02-22T05:05:22;149533.59;;;8.25;100.00
48976;BME280;34791;52.752;8.346;2023-02-22T05:07:48;149536.16;;;8.26;100.00
48976;BME280;34791;52.752;8.346;2023-02-22T05:10:15;149525.81;;;8.21;100.00
48976;BME280;34791;52.752;8.346;2023-02-22T05:12:41;149520.63;;;8.19;100.00
48976;BME280;34791;52.752;8.346;2023-02-22T05:15:07;149490.91;;;8.08;100.00
48976;BME280;34791;52.752;8.346;2023-02-22T05:17:33;149463.75;;;7.97;100.00
48976;BME280;34791;52.752;8.346;2023-02-22T05:19:58;149449.56;;;7.91;100.00
48976;BME280;34791;52.752;8.346;2023-02-22T05:22:24;149445.69;;;7.90;100.00
48976;BME280;34791;52.752;8.346;2023-02-22T05:24:49;149432.75;;;7.85;100.00
48976;BME280;34791;52.752;8.346;2023-02-22T05:27:18;149412.09;;;7.77;100.00
48976;BME280;34791;52.752;8.346;2023-02-22T05:29:43;149412.09;;;7.77;100.00
48976;BME280;34791;52.752;8.346;2023-02-22T05:32:09;149414.69;;;7.78;100.00
48976;BME280;34791;52.752;8.346;2023-02-22T05:34:36;149413.41;;;7.77;100.00
48976;BME280;34791;52.752;8.346;2023-02-22T05:37:01;149406.91;;;7.75;100.00
48976;BME280;34791;52.752;8.346;2023-02-22T05:39:28;149414.69;;;7.78;100.00
48976;BME280;34791;52.752;8.346;2023-02-22T05:41:53;149403.03;;;7.73;100.00
48976;BME280;34791;52.752;8.346;2023-02-22T05:44:19;149381.09;;;7.64;100.00
48976;BME280;34791;52.752;8.346;2023-02-22T05:46:44;149382.38;;;7.65;100.00
48976;BME280;34791;52.752;8.346;2023-02-22T05:49:09;149381.09;;;7.64;100.00
48976;BME280;34791;52.752;8.346;2023-02-22T05:51:35;149378.53;;;7.63;100.00
48976;BME280;34791;52.752;8.346;2023-02-22T05:54:00;149361.69;;;7.57;100.00
48976;BME280;34791;52.752;8.346;2023-02-22T05:56:27;149335.84;;;7.47;100.00
48976;BME280;34791;52.752;8.346;2023-02-22T05:58:53;149313.88;;;7.38;100.00
48976;BME280;34791;52.752;8.346;2023-02-22T06:01:19;149307.44;;;7.35;100.00
48976;BME280;34791;52.752;8.346;2023-02-22T06:03:46;149280.31;;;7.25;100.00
48976;BME280;34791;52.752;8.346;2023-02-22T06:06:13;149248.03;;;7.12;100.00
48976;BME280;34791;52.752;8.346;2023-02-22T06:08:38;149217.03;;;7.00;100.00
48976;BME280;34791;52.752;8.346;2023-02-22T06:11:03;149192.50;;;6.90;100.00
48976;BME280;34791;52.752;8.346;2023-02-22T06:13:29;149178.31;;;6.85;100.00
48976;BME280;34791;52.752;8.346;2023-02-22T06:15:54;149210.59;;;6.97;100.00
48976;BME280;34791;52.752;8.346;2023-02-22T06:18:20;149231.25;;;7.05;100.00
48976;BME280;34791;52.752;8.346;2023-02-22T06:20:45;149264.84;;;7.19;100.00
48976;BME280;34791;52.752;8.346;2023-02-22T06:23:11;149280.31;;;7.25;100.00
48976;BME280;34791;52.752;8.346;2023-02-22T06:25:36;149290.66;;;7.29;100.00
48976;BME280;34791;52.752;8.346;2023-02-22T06:28:02;149311.31;;;7.37;100.00
48976;BME280;34791;52.752;8.346;2023-02-22T06:30:28;149320.38;;;7.41;100.00
48976;BME280;34791;52.752;8.346;2023-02-22T06:32:54;149320.38;;;7.41;100.00
48976;BME280;34791;52.752;8.346;2023-02-22T06:35:20;149337.16;;;7.47;100.00
48976;BME280;34791;52.752;8.346;2023-02-22T06:37:46;149339.72;;;7.48;100.00
48976;BME280;34791;52.752;8.346;2023-02-22T06:40:13;149339.72;;;7.48;100.00
48976;BME280;34791;52.752;8.346;2023-02-22T06:42:39;149375.88;;;7.62;100.00
48976;BME280;34791;52.752;8.346;2023-02-22T06:45:05;149378.53;;;7.63;100.00
48976;BME280;34791;52.752;8.346;2023-02-22T06:47:30;149406.91;;;7.75;100.00
48976;BME280;34791;52.752;8.346;2023-02-22T06:49:57;149425.00;;;7.82;100.00
48976;BME280;34791;52.752;8.346;2023-02-22T06:52:23;149450.84;;;7.92;100.00
48976;BME280;34791;52.752;8.346;2023-02-22T06:54:49;149463.75;;;7.97;100.00
48976;BME280;34791;52.752;8.346;2023-02-22T06:57:14;149481.88;;;8.04;100.00
48976;BME280;34791;52.752;8.346;2023-02-22T06:59:40;149489.63;;;8.07;100.00
48976;BME280;34791;52.752;8.346;2023-02-22T07:02:05;149499.94;;;8.11;100.00
48976;BME280;34791;52.752;8.346;2023-02-22T07:04:31;149515.47;;;8.17;100.00
48976;BME280;34791;52.752;8.346;2023-02-22T07:06:56;149524.50;;;8.21;100.00
48976;BME280;34791;52.752;8.346;2023-02-22T07:09:21;149536.16;;;8.26;100.00
48976;BME280;34791;52.752;8.346;2023-02-22T07:11:47;149552.94;;;8.32;100.00
48976;BME280;34791;52.752;8.346;2023-02-22T07:14:15;149564.66;;;8.37;100.00
48976;BME280;34791;52.752;8.346;2023-02-22T07:16:40;149577.56;;;8.42;100.00
48976;BME280;34791;52.752;8.346;2023-02-22T07:19:06;149578.88;;;8.42;100.00
48976;BME280;34791;52.752;8.346;2023-02-22T07:21:31;149582.75;;;8.44;100.00
48976;BME280;34791;52.752;8.346;2023-02-22T07:23:57;149582.75;;;8.44;100.00
48976;BME280;34791;52.752;8.346;2023-02-22T07:26:24;149598.28;;;8.50;100.00
48976;BME280;34791;52.752;8.346;2023-02-22T07:28:49;149624.13;;;8.60;100.00
48976;BME280;34791;52.752;8.346;2023-02-22T07:31:15;149635.75;;;8.65;100.00
48976;BME280;34791;52.752;8.346;2023-02-22T07:33:40;149649.97;;;8.70;100.00
48976;BME280;34791;52.752;8.346;2023-02-22T07:36:06;149656.47;;;8.73;100.00
48976;BME280;34791;52.752;8.346;2023-02-22T07:38:32;149666.78;;;8.77;100.00
48976;BME280;34791;52.752;8.346;2023-02-22T07:40:57;149681.00;;;8.82;100.00
48976;BME280;34791;52.752;8.346;2023-02-22T07:43:27;149696.53;;;8.89;100.00
48976;BME280;34791;52.752;8.346;2023-02-22T07:45:55;149722.41;;;8.99;100.00
48976;BME280;34791;52.752;8.346;2023-02-22T07:48:22;149740.50;;;9.06;100.00
48976;BME280;34791;52.752;8.346;2023-02-22T07:50:48;149745.66;;;9.08;100.00
48976;BME280;34791;52.752;8.346;2023-02-22T07:53:23;149758.63;;;9.13;100.00
48976;BME280;34791;52.752;8.346;2023-02-22T07:55:50;149766.38;;;9.16;100.00
48976;BME280;34791;52.752;8.346;2023-02-22T07:58:18;149770.25;;;9.18;100.00
48976;BME280;34791;52.752;8.346;2023-02-22T08:00:44;149787.09;;;9.24;100.00
48976;BME280;34791;52.752;8.346;2023-02-22T08:03:13;149794.84;;;9.27;100.00
48976;BME280;34791;52.752;8.346;2023-02-22T08:05:41;149802.59;;;9.30;100.00
48976;BME280;34791;52.752;8.346;2023-02-22T08:08:06;149818.16;;;9.36;100.00
48976;BME280;34791;52.752;8.346;2023-02-22T08:10:33;149812.97;;;9.34;100.00
48976;BME280;34791;52.752;8.346;2023-02-22T08:12:59;149816.84;;;9.36;100.00
48976;BME280;34791;52.752;8.346;2023-02-22T08:15:28;149818.16;;;9.36;100.00
48976;BME280;34791;52.752;8.346;2023-02-22T08:17:54;149823.31;;;9.38;100.00
48976;BME280;34791;52.752;8.346;2023-02-22T08:20:20;149829.78;;;9.41;100.00
48976;BME280;34791;52.752;8.346;2023-02-22T08:22:46;149819.44;;;9.37;100.00
48976;BME280;34791;52.752;8.346;2023-02-22T08:25:13;149800.00;;;9.29;100.00
48976;BME280;34791;52.752;8.346;2023-02-22T08:27:40;149807.75;;;9.32;100.00
48976;BME280;34791;52.752;8.346;2023-02-22T08:30:06;149825.91;;;9.39;100.00
48976;BME280;34791;52.752;8.346;2023-02-22T08:32:33;149820.72;;;9.37;100.00
48976;BME280;34791;52.752;8.346;2023-02-22T08:34:59;149838.81;;;9.45;100.00
48976;BME280;34791;52.752;8.346;2023-02-22T08:37:26;149849.19;;;9.49;100.00
48976;BME280;34791;52.752;8.346;2023-02-22T08:39:52;149873.81;;;9.58;100.00
48976;BME280;34791;52.752;8.346;2023-02-22T08:42:17;149924.25;;;9.78;100.00
48976;BME280;34791;52.752;8.346;2023-02-22T08:44:43;149944.97;;;9.86;100.00
48976;BME280;34791;52.752;8.346;2023-02-22T08:47:08;149948.84;;;9.88;100.00
48976;BME280;34791;52.752;8.346;2023-02-22T08:49:33;149979.91;;;10.00;100.00
48976;BME280;34791;52.752;8.346;2023-02-22T08:51:59;149986.38;;;10.03;100.00
48976;BME280;34791;52.752;8.346;2023-02-22T08:54:24;149981.22;;;10.01;100.00
48976;BME280;34791;52.752;8.346;2023-02-22T08:56:49;150003.22;;;10.09;100.00
48976;BME280;34791;52.752;8.346;2023-02-22T08:59:15;150022.63;;;10.17;100.00
48976;BME280;34791;52.752;8.346;2023-02-22T09:01:41;150038.25;;;10.23;100.00
48976;BME280;34791;52.752;8.346;2023-02-22T09:04:07;150046.00;;;10.26;100.00
48976;BME280;34791;52.752;8.346;2023-02-22T09:06:33;150046.00;;;10.26;100.00
48976;BME280;34791;52.752;8.346;2023-02-22T09:08:58;150036.94;;;10.22;100.00
48976;BME280;34791;52.752;8.346;2023-02-22T09:11:24;150049.88;;;10.27;100.00
48976;BME280;34791;52.752;8.346;2023-02-22T09:13:49;150051.16;;;10.28;100.00
48976;BME280;34791;52.752;8.346;2023-02-22T09:16:15;150075.78;;;10.38;100.00
48976;BME280;34791;52.752;8.346;2023-02-22T09:18:40;150084.81;;;10.41;100.00
48976;BME280;34791;52.752;8.346;2023-02-22T09:21:06;150112.03;;;10.52;100.00
48976;BME280;34791;52.752;8.346;2023-02-22T09:23:31;150114.63;;;10.53;100.00
48976;BME280;34791;52.752;8.346;2023-02-22T09:25:57;150127.59;;;10.58;100.00
48976;BME280;34791;52.752;8.346;2023-02-22T09:28:24;150149.63;;;10.67;100.00
48976;BME280;34791;52.752;8.346;2023-02-22T09:30:50;150166.44;;;10.73;100.00
48976;BME280;34791;52.752;8.346;2023-02-22T09:33:17;150201.41;;;10.87;100.00
48976;BME280;34791;52.752;8.346;2023-02-22T09:35:44;150229.94;;;10.98;100.00
48976;BME280;34791;52.752;8.346;2023-02-22T09:38:16;150237.69;;;11.01;100.00
48976;BME280;34791;52.752;8.346;2023-02-22T09:40:46;150271.41;;;11.14;100.00
48976;BME280;34791;52.752;8.346;2023-02-22T09:43:33;150301.19;;;11.26;100.00
48976;BME280;34791;52.752;8.346;2023-02-22T09:46:34;150318.06;;;11.33;100.00
48976;BME280;34791;52.752;8.346;2023-02-22T09:49:08;150305.09;;;11.28;100.00
48976;BME280;34791;52.752;8.346;2023-02-22T09:54:30;150309.00;;;11.29;100.00
48976;BME280;34791;52.752;8.346;2023-02-22T09:57:01;150337.50;;;11.40;100.00
48976;BME280;34791;52.752;8.346;2023-02-22T09:59:32;150321.94;;;11.34;100.00
48976;BME280;34791;52.752;8.346;2023-02-22T10:02:22;150340.09;;;11.41;100.00
48976;BME280;34791;52.752;8.346;2023-02-22T10:05:12;150363.38;;;11.51;100.00
48976;BME280;34791;52.752;8.346;2023-02-22T10:07:58;150364.75;;;11.51;100.00
48976;BME280;34791;52.752;8.346;2023-02-22T10:10:29;150362.09;;;11.50;100.00
48976;BME280;34791;52.752;8.346;2023-02-22T10:16:46;150377.69;;;11.56;100.00
48976;BME280;34791;52.752;8.346;2023-02-22T10:27:15;150439.97;;;11.81;100.00
48976;BME280;34791;52.752;8.346;2023-02-22T10:29:46;150462.00;;;11.89;100.00
48976;BME280;34791;52.752;8.346;2023-02-22T10:32:19;150463.31;;;11.90;100.00
48976;BME280;34791;52.752;8.346;2023-02-22T10:34:48;150491.84;;;12.01;100.00
48976;BME280;34791;52.752;8.346;2023-02-22T10:39:48;150434.72;;;11.79;100.00
48976;BME280;34791;52.752;8.346;2023-02-22T10:42:18;150473.66;;;11.94;100.00
48976;BME280;34791;52.752;8.346;2023-02-22T10:44:46;150504.78;;;12.06;100.00
48976;BME280;34791;52.752;8.346;2023-02-22T10:47:13;150498.31;;;12.03;100.00
48976;BME280;34791;52.752;8.346;2023-02-22T10:49:59;150509.97;;;12.08;100.00
48976;BME280;34791;52.752;8.346;2023-02-22T10:52:28;150525.56;;;12.14;100.00
48976;BME280;34791;52.752;8.346;2023-02-22T10:54:57;150559.28;;;12.27;100.00
48976;BME280;34791;52.752;8.346;2023-02-22T10:57:34;150544.97;;;12.22;100.00
48976;BME280;34791;52.752;8.346;2023-02-22T11:03:18;150604.66;;;12.45;100.00
48976;BME280;34791;52.752;8.346;2023-02-22T11:05:44;150581.34;;;12.36;100.00
48976;BME280;34791;52.752;8.346;2023-02-22T11:10:55;150611.19;;;12.48;100.00
48976;BME280;34791;52.752;8.346;2023-02-22T11:16:32;150608.53;;;12.47;100.00
48976;BME280;34791;52.752;8.346;2023-02-22T11:19:11;150582.63;;;12.37;100.00
48976;BME280;34791;52.752;8.346;2023-02-22T11:21:42;150608.53;;;12.47;100.00
48976;BME280;34791;52.752;8.346;2023-02-22T11:24:10;150629.31;;;12.55;100.00
48976;BME280;34791;52.752;8.346;2023-02-22T11:26:40;150663.03;;;12.68;100.00
48976;BME280;34791;52.752;8.346;2023-02-22T11:31:46;150718.84;;;12.90;100.00
48976;BME280;34791;52.752;8.346;2023-02-22T11:34:35;150708.47;;;12.86;100.00
48976;BME280;34791;52.752;8.346;2023-02-22T11:40:15;150762.97;;;13.07;100.00
48976;BME280;34791;52.752;8.346;2023-02-22T11:42:46;150727.91;;;12.94;100.00
48976;BME280;34791;52.752;8.346;2023-02-22T11:47:57;150835.72;;;13.36;100.00
48976;BME280;34791;52.752;8.346;2023-02-22T11:50:32;150757.78;;;13.05;100.00
48976;BME280;34791;52.752;8.346;2023-02-22T11:58:42;150886.34;;;13.56;100.00
48976;BME280;34791;52.752;8.346;2023-02-22T12:01:19;150870.78;;;13.49;100.00
48976;BME280;34791;52.752;8.346;2023-02-22T12:12:03;150942.19;;;13.77;100.00
48976;BME280;34791;52.752;8.346;2023-02-22T12:17:36;150917.50;;;13.68;100.00
48976;BME280;34791;52.752;8.346;2023-02-22T12:22:45;150875.97;;;13.52;100.00
48976;BME280;34791;52.752;8.346;2023-02-22T12:27:46;150905.81;;;13.63;100.00
48976;BME280;34791;52.752;8.346;2023-02-22T12:32:57;150969.47;;;13.88;100.00
48976;BME280;34791;52.752;8.346;2023-02-22T12:35:29;150896.75;;;13.60;100.00
48976;BME280;34791;52.752;8.346;2023-02-22T12:46:10;150940.88;;;13.77;100.00
48976;BME280;34791;52.752;8.346;2023-02-22T12:51:22;150922.72;;;13.70;100.00
48976;BME280;34791;52.752;8.346;2023-02-22T12:57:04;150986.38;;;13.95;100.00
48976;BME280;34791;52.752;8.346;2023-02-22T13:04:42;151037.00;;;14.15;100.00
48976;BME280;34791;52.752;8.346;2023-02-22T13:10:32;151073.38;;;14.29;100.00
48976;BME280;34791;52.752;8.346;2023-02-22T13:21:03;151195.56;;;14.77;100.00
48976;BME280;34791;52.752;8.346;2023-02-22T13:26:22;151234.59;;;14.92;100.00
48976;BME280;34791;52.752;8.346;2023-02-22T13:28:56;151206.00;;;14.81;100.00
48976;BME280;34791;52.752;8.346;2023-02-22T13:31:43;151256.66;;;15.01;100.00
48976;BME280;34791;52.752;8.346;2023-02-22T13:48:11;151294.41;;;15.15;100.00
48976;BME280;34791;52.752;8.346;2023-02-22T13:51:05;151289.16;;;15.13;100.00
48976;BME280;34791;52.752;8.346;2023-02-22T13:53:54;151254.06;;;15.00;100.00
48976;BME280;34791;52.752;8.346;2023-02-22T13:56:24;151208.59;;;14.82;100.00
48976;BME280;34791;52.752;8.346;2023-02-22T13:58:56;151198.16;;;14.78;100.00
48976;BME280;34791;52.752;8.346;2023-02-22T14:06:48;151180.00;;;14.71;100.00
48976;BME280;34791;52.752;8.346;2023-02-22T14:09:15;151122.81;;;14.48;100.00
48976;BME280;34791;52.752;8.346;2023-02-22T14:11:46;151024.03;;;14.10;100.00
48976;BME280;34791;52.752;8.346;2023-02-22T14:14:13;150977.25;;;13.91;100.00
48976;BME280;34791;52.752;8.346;2023-02-22T14:16:41;150977.25;;;13.91;100.00
48976;BME280;34791;52.752;8.346;2023-02-22T14:19:19;150975.94;;;13.91;100.00
48976;BME280;34791;52.752;8.346;2023-02-22T14:22:02;150937.00;;;13.75;100.00
48976;BME280;34791;52.752;8.346;2023-02-22T14:24:48;150946.06;;;13.79;100.00
48976;BME280;34791;52.752;8.346;2023-02-22T14:27:16;150983.78;;;13.94;100.00
48976;BME280;34791;52.752;8.346;2023-02-22T14:29:53;150965.56;;;13.87;100.00
48976;BME280;34791;52.752;8.346;2023-02-22T14:32:29;150953.91;;;13.82;100.00
48976;BME280;34791;52.752;8.346;2023-02-22T14:34:57;150927.91;;;13.72;100.00
48976;BME280;34791;52.752;8.346;2023-02-22T14:37:38;150940.88;;;13.77;100.00
48976;BME280;34791;52.752;8.346;2023-02-22T14:40:15;150933.09;;;13.74;100.00
48976;BME280;34791;52.752;8.346;2023-02-22T14:42:50;150895.47;;;13.59;100.00
48976;BME280;34791;52.752;8.346;2023-02-22T14:45:22;150905.81;;;13.63;100.00
48976;BME280;34791;52.752;8.346;2023-02-22T14:48:11;150891.56;;;13.58;100.00
48976;BME280;34791;52.752;8.346;2023-02-22T14:56:22;150870.78;;;13.49;100.00
48976;BME280;34791;52.752;8.346;2023-02-22T15:00:58;150835.72;;;13.36;100.00
48976;BME280;34791;52.752;8.346;2023-02-22T15:03:33;150831.84;;;13.34;100.00
48976;BME280;34791;52.752;8.346;2023-02-22T15:06:22;150824.00;;;13.31;100.00
48976;BME280;34791;52.752;8.346;2023-02-22T15:08:54;150824.00;;;13.31;100.00
48976;BME280;34791;52.752;8.346;2023-02-22T15:11:30;150829.25;;;13.33;100.00
48976;BME280;34791;52.752;8.346;2023-02-22T15:14:00;150830.53;;;13.34;100.00
48976;BME280;34791;52.752;8.346;2023-02-22T15:16:29;150826.59;;;13.32;100.00
48976;BME280;34791;52.752;8.346;2023-02-22T15:19:05;150831.84;;;13.34;100.00
48976;BME280;34791;52.752;8.346;2023-02-22T15:21:33;150831.84;;;13.34;100.00
48976;BME280;34791;52.752;8.346;2023-02-22T15:24:03;150826.59;;;13.32;100.00
48976;BME280;34791;52.752;8.346;2023-02-22T15:26:41;150826.59;;;13.32;100.00
48976;BME280;34791;52.752;8.346;2023-02-22T15:29:22;150818.84;;;13.29;100.00
48976;BME280;34791;52.752;8.346;2023-02-22T15:31:49;150808.47;;;13.25;100.00
48976;BME280;34791;52.752;8.346;2023-02-22T15:36:44;150803.28;;;13.23;100.00